createdAt,value
2022-09-09T00:04:31.836Z,74763.03
2022-09-09T00:14:44.237Z,74787.28
2022-09-09T00:24:56.117Z,74797.41
2022-09-09T00:35:06.455Z,74803.47
2022-09-09T00:45:38.846Z,74803.47
2022-09-09T00:55:50.180Z,74799.44
2022-09-09T01:06:06.093Z,74807.53
2022-09-09T01:16:09.972Z,74807.53
2022-09-09T01:26:21.042Z,74805.50
2022-09-09T01:36:57.525Z,74803.47
2022-09-09T01:47:02.357Z,74803.47
2022-09-09T01:57:12.923Z,74801.47
2022-09-09T02:07:40.882Z,74791.34
2022-09-09T02:17:58.199Z,74795.38
2022-09-09T02:28:08.814Z,74779.19
2022-09-09T02:38:15.978Z,74781.22
2022-09-09T02:48:56.195Z,74783.25
2022-09-09T02:59:06.677Z,74791.34
2022-09-09T03:09:16.017Z,74787.28
2022-09-09T03:19:21.169Z,74783.25
2022-09-09T03:29:24.616Z,74773.13
2022-09-09T03:39:33.251Z,74771.09
2022-09-09T03:49:37.623Z,74771.09
2022-09-09T03:59:42.863Z,74769.09
2022-09-09T04:09:50.313Z,74769.09
2022-09-09T04:19:56.873Z,74765.03
2022-09-09T04:30:02.116Z,74761.00
2022-09-09T04:40:10.942Z,74750.88
2022-09-09T04:50:13.527Z,74754.94
2022-09-09T05:00:16.551Z,74758.97
2022-09-09T05:10:19.815Z,74767.06
2022-09-09T05:20:27.078Z,74758.97
2022-09-09T05:30:31.523Z,74754.94
2022-09-09T05:40:38.407Z,74742.78
2022-09-09T05:50:41.116Z,74742.78
2022-09-09T06:00:46.253Z,74740.75
2022-09-09T06:10:50.929Z,74734.69
2022-09-09T06:21:09.652Z,74736.72
2022-09-09T06:31:15.379Z,74738.75
2022-09-09T06:41:20.873Z,74734.69
2022-09-09T06:51:28.371Z,74730.66
2022-09-09T07:01:35.125Z,74704.34
2022-09-09T07:11:49.852Z,74702.31
2022-09-09T07:21:54.740Z,74718.50
2022-09-09T07:32:00.137Z,74728.63
2022-09-09T07:42:08.214Z,74716.47
2022-09-09T07:52:15.926Z,74714.47
2022-09-09T08:02:22.784Z,74714.47
2022-09-09T08:12:30.342Z,74732.66
2022-09-09T08:22:35.666Z,74728.63
2022-09-09T08:32:43.358Z,74730.66
2022-09-09T08:42:54.174Z,74712.44
2022-09-09T08:53:11.804Z,74720.53
2022-09-09T09:03:34.801Z,74708.38
2022-09-09T09:13:54.778Z,74710.41
2022-09-09T09:24:00.677Z,74718.50
2022-09-09T09:34:06.064Z,74714.47
2022-09-09T09:44:33.676Z,74718.50
2022-09-09T09:54:43.483Z,74694.22
2022-09-09T10:04:48.933Z,74696.25
2022-09-09T10:15:34.615Z,74682.09
2022-09-09T10:25:52.208Z,74682.09
2022-09-09T10:36:15.410Z,74686.13
2022-09-09T10:46:47.503Z,74686.13
2022-09-09T10:57:00.187Z,74686.13
2022-09-09T11:07:11.688Z,74682.09
2022-09-09T11:17:18.097Z,74698.28
2022-09-09T11:27:27.671Z,74682.09
2022-09-09T11:38:13.555Z,74680.06
2022-09-09T11:48:34.651Z,74667.91
2022-09-09T11:58:42.972Z,74661.84
2022-09-09T12:08:56.056Z,74651.75
2022-09-09T12:19:17.021Z,74649.72
2022-09-09T12:29:31.832Z,74643.66
2022-09-09T12:39:43.712Z,74655.78
2022-09-09T12:49:45.992Z,74629.47
2022-09-09T12:59:49.710Z,74609.25
2022-09-09T13:09:54.109Z,74609.25
2022-09-09T13:19:57.332Z,74613.28
2022-09-09T13:30:27.196Z,74609.25
2022-09-09T13:40:33.154Z,74605.19
2022-09-09T13:50:36.012Z,74621.38
2022-09-09T14:00:38.144Z,74637.56
2022-09-09T14:10:40.274Z,74641.63
2022-09-09T14:20:47.206Z,74637.56
2022-09-09T14:30:50.604Z,74665.91
2022-09-09T14:40:59.690Z,74649.72
2022-09-09T14:51:13.941Z,74631.50
2022-09-09T15:01:19.952Z,74637.56
2022-09-09T15:11:29.474Z,74645.66
2022-09-09T15:21:37.717Z,74627.47
2022-09-09T15:31:42.310Z,74617.34
2022-09-09T15:41:47.036Z,74629.47
2022-09-09T15:51:55.877Z,74625.44
2022-09-09T16:02:00.404Z,74629.47
2022-09-09T16:12:10.952Z,74625.44
2022-09-09T16:22:19.253Z,74607.22
2022-09-09T16:32:26.111Z,74609.25
2022-09-09T16:42:28.769Z,74639.59
2022-09-09T16:52:33.942Z,74661.84
2022-09-09T17:02:39.511Z,74661.84
2022-09-09T17:12:44.143Z,74669.94
2022-09-09T17:22:49.348Z,74688.16
2022-09-09T17:32:51.382Z,74696.25
2022-09-09T17:42:59.769Z,74714.47
2022-09-09T17:53:06.453Z,74724.56
2022-09-09T18:03:09.549Z,74730.66
2022-09-09T18:13:16.329Z,74732.66
2022-09-09T18:23:18.620Z,74736.72
2022-09-09T18:33:20.585Z,74736.72
2022-09-09T18:43:22.773Z,74740.75
2022-09-09T18:53:24.904Z,74754.94
2022-09-09T19:03:30.407Z,74750.88
2022-09-09T19:13:40.019Z,74748.84
2022-09-09T19:23:46.941Z,74758.97
2022-09-09T19:33:52.755Z,74767.06
2022-09-09T19:44:03.803Z,74779.19
2022-09-09T19:54:14.746Z,74775.16
2022-09-09T20:04:22.422Z,74783.25
2022-09-09T20:14:24.436Z,74799.44
2022-09-09T20:24:26.486Z,74795.38
2022-09-09T20:34:33.588Z,74803.47
2022-09-09T20:44:37.912Z,74807.53
2022-09-09T20:54:40.174Z,74829.78
2022-09-09T21:04:47.693Z,74827.75
2022-09-09T21:14:51.760Z,74825.75
2022-09-09T21:24:58.805Z,74835.84
2022-09-09T21:35:01.471Z,74835.84
2022-09-09T21:45:06.648Z,74839.91
2022-09-09T21:55:10.135Z,74839.91
2022-09-09T22:05:16.490Z,74833.84
2022-09-09T22:15:18.886Z,74835.84
2022-09-09T22:25:23.956Z,74839.91
2022-09-09T22:35:29.209Z,74839.91
2022-09-09T22:45:37.456Z,74839.91
2022-09-09T22:55:41.806Z,74841.94
2022-09-09T23:05:56.656Z,74835.84
2022-09-09T23:15:58.839Z,74839.91
2022-09-09T23:26:11.041Z,74843.94
2022-09-09T23:36:15.607Z,74837.88
2022-09-09T23:46:25.611Z,74854.06
2022-09-09T23:56:31.499Z,74856.09
